Information Last Ob Photographs Meteogram Network Table Neighbors Monthly Summaries Observation History Wind Roses Custom Wind Roses Data Calendar Satellite Cloud Product Download

15 April 2024 Observation History, [RWV] Caldwell, timezone: America/Chicago

Select Date: Time Order:

Show METARs   Show High Frequency MADIS

Previous Day
Time Wind
(mph)
Vis.
(mi.)
Sky Cond.
(100s ft)
Present Wx Temperature (ºF) Relative
Humidity
Pressure Snow
Depth
(in)
Precipitation (in.)
Air Dwpt Feels Like 6 hour altimeter
(in.)
sea level
(mb)
1 hr 3 hr 6 hr
Max.Min.
12:10 AMS 1010 OVC025
716471 80% 29.960
KRWV 150510Z AUTO 17009KT 10SM OVC025 22/18 A2996 RMK AO2 T02170180
12:30 AMS 810 OVC023
716571 80% 29.960
KRWV 150530Z AUTO 17007KT 10SM OVC023 22/18 A2996 RMK AO2 T02170181
12:50 AMSSE 810 OVC021
716571 78 70 82% 29.960
KRWV 150550Z AUTO 16007KT 10SM OVC021 21/18 A2996 RMK AO2 T02150182 10258 20213
1:10 AMSSE 710 BKN019
OVC023
706570 83% 29.960
KRWV 150610Z AUTO 16006KT 10SM BKN019 OVC023 21/18 A2996 RMK AO2 T02140183
1:30 AMSSE 910 OVC019
706570 83% 29.950
KRWV 150630Z AUTO 16008KT 10SM OVC019 21/18 A2995 RMK AO2 T02140184
1:50 AMS 910 OVC019
706570 84% 29.940
KRWV 150650Z AUTO 17008KT 10SM OVC019 21/19 A2994 RMK AO2 T02130185
2:10 AMS 910 OVC019
706670 85% 29.940
KRWV 150710Z AUTO 17008KT 10SM OVC019 21/19 A2994 RMK AO2 T02130186
2:30 AMS 710 BKN017
OVC022
706670 86% 29.940
KRWV 150730Z AUTO 17006KT 10SM BKN017 OVC022 21/19 A2994 RMK AO2 T02120186
2:50 AMS 810 OVC019
706670 86% 29.930
KRWV 150750Z AUTO 17007KT 10SM OVC019 21/19 A2993 RMK AO2 T02120186
3:10 AMS 810 OVC017
706670 88% 29.920
KRWV 150810Z AUTO 17007KT 10SM OVC017 21/19 A2992 RMK AO2 T02090188
3:30 AMS 810 OVC019
696669 89% 29.920
KRWV 150830Z AUTO 17007KT 10SM OVC019 21/19 A2992 RMK AO2 T02080189
3:50 AMS 910 SCT016
OVC021
696669 90% 29.910
KRWV 150850Z AUTO 17008KT 10SM SCT016 OVC021 21/19 A2991 RMK AO2 T02060189
4:10 AMS 910 OVC021
696669 91% 29.90
KRWV 150910Z AUTO 17008KT 10SM OVC021 21/19 A2990 RMK AO2 T02060191

The IEM API webservice that provided data to this page. For more details, see documentation.

Data Notes

  • For recent years, this page also optionally shows observations from the MADIS High Frequency METAR dataset. This dataset had a problem with temperatures detailed here.